Time;durP1;ratioP1;P1;durP2;ratioP2;P2;SDS_P1;SDS_P2;PMS_P1;PMS_P2;Temp;Humidity;BMP_temperature;BMP_pressure;BME280_temperature;BME280_humidity;BME280_pressure;Samples;Min_cycle;Max_cycle;Signal;HPM_P1;HPM_P2
2021/06/17 00:01:59;;;;;;;3.83;3.45;;;19.10;91.30;;;;;;5055099;28;20037;-68
2021/06/17 00:04:25;;;;;;;5.38;4.60;;;19.10;91.90;;;;;;5055182;28;20083;-69
2021/06/17 00:06:52;;;;;;;4.28;3.97;;;19.00;92.60;;;;;;5054516;28;20114;-69
2021/06/17 00:09:19;;;;;;;4.50;4.07;;;19.10;93.70;;;;;;5055648;28;20076;-69
2021/06/17 00:11:45;;;;;;;4.35;3.90;;;19.00;94.20;;;;;;5054217;28;20071;-69
2021/06/17 00:14:13;;;;;;;4.03;3.67;;;18.90;95.40;;;;;;5055310;28;20085;-68
2021/06/17 00:16:40;;;;;;;5.35;4.20;;;18.90;96.40;;;;;;5055095;28;20076;-68
2021/06/17 00:19:07;;;;;;;4.10;3.80;;;18.90;97.70;;;;;;5055056;28;20103;-68
2021/06/17 00:21:33;;;;;;;4.57;4.18;;;18.90;98.50;;;;;;5054884;28;20049;-68
2021/06/17 00:24:00;;;;;;;4.30;3.90;;;18.80;99.70;;;;;;5055870;28;20117;-68
2021/06/17 00:26:26;;;;;;;4.50;4.10;;;18.80;99.90;;;;;;5055324;28;20045;-69
2021/06/17 00:28:53;;;;;;;6.35;4.50;;;18.70;99.90;;;;;;5055164;28;20068;-69
2021/06/17 00:31:21;;;;;;;4.95;4.55;;;18.70;99.90;;;;;;5055664;28;20064;-69
2021/06/17 00:33:47;;;;;;;6.38;4.05;;;18.60;99.90;;;;;;5055300;28;20575;-68
2021/06/17 00:36:14;;;;;;;4.68;4.22;;;18.70;99.90;;;;;;5055316;28;20083;-69
2021/06/17 00:38:41;;;;;;;6.68;5.40;;;18.60;99.90;;;;;;5055681;28;20072;-69
2021/06/17 00:41:07;;;;;;;4.68;4.25;;;18.60;99.90;;;;;;5055398;28;20072;-68
2021/06/17 00:43:34;;;;;;;5.28;4.53;;;18.60;99.90;;;;;;5055850;28;20065;-68
2021/06/17 00:46:00;;;;;;;6.75;4.93;;;18.50;99.90;;;;;;5055472;28;20084;-68
2021/06/17 00:48:28;;;;;;;4.85;4.38;;;18.50;99.90;;;;;;5055067;28;20519;-68
2021/06/17 00:50:57;;;;;;;7.85;4.80;;;18.50;99.90;;;;;;5054539;28;20067;-67
2021/06/17 00:53:27;;;;;;;5.47;4.63;;;18.50;99.90;;;;;;5054385;28;20496;-67
2021/06/17 00:55:54;;;;;;;4.45;4.15;;;18.50;99.90;;;;;;5053978;28;20072;-67
2021/06/17 00:58:21;;;;;;;5.45;4.95;;;18.50;99.90;;;;;;5054221;28;20496;-67
2021/06/17 01:00:48;;;;;;;6.38;5.70;;;18.50;99.90;;;;;;5054714;28;20041;-68
2021/06/17 01:03:14;;;;;;;5.70;5.07;;;18.50;99.90;;;;;;5054323;28;20104;-67
2021/06/17 01:05:43;;;;;;;6.35;5.22;;;18.40;99.90;;;;;;5053716;28;20053;-67
2021/06/17 01:08:25;;;;;;;8.30;5.82;;;18.30;99.90;;;;;;5053531;28;20068;-68
2021/06/17 01:11:05;;;;;;;5.90;4.85;;;18.30;99.90;;;;;;5054295;28;20063;-68
2021/06/17 01:13:37;;;;;;;7.55;5.85;;;18.30;99.90;;;;;;5054375;28;20497;-68
2021/06/17 01:16:10;;;;;;;;;;;18.40;99.90;;;;;;5054341;28;20566;-67
2021/06/17 01:18:40;;;;;;;6.15;5.55;;;18.40;99.90;;;;;;5054342;28;20285;-67
2021/06/17 01:21:15;;;;;;;6.45;5.80;;;18.50;99.90;;;;;;5053973;28;20073;-69
2021/06/17 01:23:57;;;;;;;6.60;5.72;;;18.50;99.90;;;;;;5054474;28;20068;-69
2021/06/17 01:26:31;;;;;;;8.02;6.32;;;18.40;99.90;;;;;;5053875;28;20053;-69
2021/06/17 01:29:01;;;;;;;6.45;5.88;;;18.50;99.90;;;;;;5053932;28;20359;-69
2021/06/17 01:31:32;;;;;;;6.53;5.85;;;18.50;99.90;;;;;;5053766;28;20045;-68
2021/06/17 01:34:00;;;;;;;5.85;5.25;;;18.50;99.90;;;;;;5054392;28;20103;-68
2021/06/17 01:36:35;;;;;;;6.63;6.03;;;18.50;99.90;;;;;;5053649;28;20052;-68
2021/06/17 01:39:06;;;;;;;8.95;6.32;;;18.50;99.90;;;;;;5053306;28;20072;-69
2021/06/17 01:41:37;;;;;;;6.77;6.13;;;18.40;99.90;;;;;;5041386;28;20497;-69
2021/06/17 01:44:09;;;;;;;7.65;6.88;;;18.40;99.90;;;;;;5052477;28;20307;-69
2021/06/17 01:46:35;;;;;;;;;;;18.30;99.90;;;;;;5054524;28;20463;-68
2021/06/17 01:49:02;;;;;;;7.10;6.20;;;18.30;99.90;;;;;;5054104;28;19920;-68
2021/06/17 01:51:31;;;;;;;7.53;6.38;;;18.30;99.90;;;;;;5054182;28;20079;-68
2021/06/17 01:53:57;;;;;;;6.55;5.90;;;18.30;99.90;;;;;;5054741;28;20102;-68
2021/06/17 01:56:25;;;;;;;6.60;6.00;;;18.30;99.90;;;;;;5054684;28;20524;-68
2021/06/17 01:58:55;;;;;;;9.07;6.97;;;18.30;99.90;;;;;;5054620;28;20104;-69
2021/06/17 02:01:25;;;;;;;6.40;5.78;;;18.20;99.90;;;;;;5054819;28;20049;-68
2021/06/17 02:03:53;;;;;;;7.93;6.85;;;18.40;99.90;;;;;;5054902;28;20791;-68
2021/06/17 02:06:20;;;;;;;7.35;6.70;;;18.30;99.90;;;;;;5054389;28;20083;-68
2021/06/17 02:08:51;;;;;;;10.82;7.70;;;18.20;99.90;;;;;;5055112;28;20095;-68
2021/06/17 02:11:18;;;;;;;8.52;7.72;;;18.40;99.90;;;;;;5054205;28;20045;-69
2021/06/17 02:13:46;;;;;;;8.43;7.63;;;18.30;99.90;;;;;;5055005;28;20076;-69
2021/06/17 02:16:14;;;;;;;8.18;7.38;;;18.20;99.90;;;;;;5055148;28;20045;-69
2021/06/17 02:18:45;;;;;;;10.23;7.68;;;18.20;99.90;;;;;;5054397;28;20107;-69
2021/06/17 02:21:14;;;;;;;9.20;7.85;;;18.20;99.90;;;;;;5054708;28;20075;-69
2021/06/17 02:23:46;;;;;;;9.90;8.52;;;18.20;99.90;;;;;;5052327;28;20064;-68
2021/06/17 02:26:13;;;;;;;8.98;8.02;;;18.40;99.90;;;;;;5036798;28;20083;-67
2021/06/17 02:28:43;;;;;;;8.27;7.57;;;18.30;99.90;;;;;;5052803;28;20068;-68
2021/06/17 02:31:13;;;;;;;14.02;8.77;;;18.20;99.90;;;;;;5052180;28;20072;-69
2021/06/17 02:33:41;;;;;;;10.30;8.32;;;18.40;99.90;;;;;;5052675;28;20102;-69
2021/06/17 02:36:09;;;;;;;11.43;9.23;;;18.40;99.90;;;;;;5051673;28;20103;-69
2021/06/17 02:38:39;;;;;;;8.90;8.07;;;18.40;99.90;;;;;;5052569;28;20080;-68
2021/06/17 02:41:10;;;;;;;9.10;8.30;;;18.30;99.90;;;;;;5052525;28;20132;-68
2021/06/17 02:43:40;;;;;;;9.27;8.48;;;18.20;99.90;;;;;;5052494;28;20118;-68
2021/06/17 02:46:06;;;;;;;10.13;9.10;;;18.20;99.90;;;;;;5052462;28;20041;-67
2021/06/17 02:48:33;;;;;;;11.35;9.00;;;18.20;99.90;;;;;;5051908;28;20045;-69
2021/06/17 02:51:01;;;;;;;9.20;7.70;;;18.10;99.90;;;;;;5051847;28;20094;-69
2021/06/17 02:53:29;;;;;;;11.63;8.77;;;18.10;99.90;;;;;;5052270;28;20382;-68
2021/06/17 02:55:58;;;;;;;9.82;8.75;;;18.10;99.90;;;;;;5051749;28;20068;-68
2021/06/17 02:58:41;;;;;;;14.07;8.93;;;18.10;99.90;;;;;;5052023;28;20424;-68
2021/06/17 03:01:15;;;;;;;12.52;8.52;;;18.10;99.90;;;;;;5052428;28;20065;-68
2021/06/17 03:03:46;;;;;;;8.45;7.65;;;18.20;99.90;;;;;;5051866;28;20146;-68
2021/06/17 03:06:20;;;;;;;10.27;9.18;;;18.20;99.90;;;;;;5051658;28;20130;-69
2021/06/17 03:08:52;;;;;;;9.32;8.40;;;18.20;99.90;;;;;;5052187;28;20053;-68
2021/06/17 03:11:20;;;;;;;9.80;8.80;;;18.20;99.90;;;;;;5051723;28;20049;-68
2021/06/17 03:13:49;;;;;;;9.75;8.35;;;18.20;99.90;;;;;;5052383;28;20053;-68
2021/06/17 03:16:20;;;;;;;10.80;9.70;;;18.30;99.90;;;;;;5052037;28;20394;-69
2021/06/17 03:18:48;;;;;;;10.68;9.57;;;18.30;99.90;;;;;;5051662;28;20489;-69
2021/06/17 03:21:18;;;;;;;11.52;8.90;;;18.30;99.90;;;;;;5052167;28;20080;-68
2021/06/17 03:23:45;;;;;;;10.40;9.50;;;18.30;99.90;;;;;;5051853;28;20079;-68
2021/06/17 03:26:14;;;;;;;10.88;9.98;;;18.30;99.90;;;;;;5051814;28;20080;-68
2021/06/17 03:28:43;;;;;;;11.32;9.50;;;18.30;99.90;;;;;;5043541;28;20099;-69
2021/06/17 03:31:13;;;;;;;10.38;9.35;;;18.30;99.90;;;;;;5051598;28;20068;-67
2021/06/17 03:33:40;;;;;;;10.60;9.50;;;18.40;99.90;;;;;;5051852;28;20041;-68
2021/06/17 03:36:08;;;;;;;10.77;9.68;;;18.40;99.90;;;;;;5051298;28;20048;-68
2021/06/17 03:38:38;;;;;;;12.10;10.20;;;18.40;99.90;;;;;;5051337;28;20098;-69
2021/06/17 03:41:06;;;;;;;10.75;9.82;;;18.40;99.90;;;;;;5051195;28;20456;-69
2021/06/17 03:43:34;;;;;;;11.00;9.48;;;18.50;99.90;;;;;;5050713;28;20045;-68
2021/06/17 03:46:02;;;;;;;14.43;10.77;;;18.60;99.90;;;;;;5049571;28;20136;-72
2021/06/17 03:48:30;;;;;;;12.93;11.15;;;18.60;99.90;;;;;;5053164;28;20073;-71
2021/06/17 03:50:57;;;;;;;11.40;9.88;;;18.70;99.90;;;;;;5054295;28;20041;-70
2021/06/17 03:53:24;;;;;;;11.95;10.77;;;18.80;99.90;;;;;;5054631;28;20045;-68
2021/06/17 03:55:54;;;;;;;11.20;10.10;;;18.90;99.90;;;;;;5054126;28;20080;-68
2021/06/17 03:58:24;;;;;;;11.23;10.25;;;18.90;99.90;;;;;;5054496;28;20073;-68
2021/06/17 04:00:51;;;;;;;11.13;10.07;;;18.90;99.90;;;;;;5055173;28;20106;-72
2021/06/17 04:03:20;;;;;;;12.73;11.23;;;19.00;99.90;;;;;;5054771;28;20120;-72
2021/06/17 04:05:47;;;;;;;11.15;10.10;;;19.10;99.90;;;;;;5054455;28;20412;-70
2021/06/17 04:08:16;;;;;;;12.48;11.13;;;19.10;99.90;;;;;;5054608;28;20590;-70
2021/06/17 04:10:44;;;;;;;13.30;10.65;;;19.20;99.90;;;;;;5054327;28;20041;-72
2021/06/17 04:13:14;;;;;;;15.48;12.40;;;19.20;99.90;;;;;;5054767;28;20068;-72
2021/06/17 04:15:42;;;;;;;14.05;12.60;;;19.30;99.90;;;;;;5054242;28;20041;-73
2021/06/17 04:18:10;;;;;;;13.45;10.70;;;19.30;99.90;;;;;;5054442;28;20045;-74
2021/06/17 04:20:41;;;;;;;16.92;11.85;;;19.40;99.90;;;;;;5054189;28;20485;-69
2021/06/17 04:23:09;;;;;;;12.88;11.55;;;19.50;99.90;;;;;;5054922;28;20044;-71
2021/06/17 04:25:39;;;;;;;14.95;11.25;;;19.60;99.90;;;;;;5054703;28;20087;-70
2021/06/17 04:28:06;;;;;;;15.38;12.80;;;19.60;99.90;;;;;;5054625;28;20094;-69
2021/06/17 04:30:35;;;;;;;14.60;12.85;;;19.70;99.90;;;;;;4982398;28;20094;-69
2021/06/17 04:33:05;;;;;;;13.52;11.80;;;19.80;99.90;;;;;;5062854;28;20417;-68
2021/06/17 04:35:34;;;;;;;12.50;10.77;;;19.90;99.90;;;;;;5054042;28;20107;-68
2021/06/17 04:38:01;;;;;;;13.07;11.70;;;19.90;99.90;;;;;;5053905;28;20083;-70
2021/06/17 04:40:28;;;;;;;13.75;11.07;;;20.00;99.90;;;;;;5054502;28;20068;-70
2021/06/17 04:42:56;;;;;;;11.93;10.73;;;20.10;99.90;;;;;;5053929;28;20448;-71
2021/06/17 04:45:26;;;;;;;14.32;11.95;;;20.20;99.90;;;;;;5053793;28;20079;-70
2021/06/17 04:47:57;;;;;;;12.57;11.32;;;20.20;99.90;;;;;;5053791;28;20073;-71
2021/06/17 04:50:24;;;;;;;13.13;11.00;;;20.30;99.90;;;;;;5054432;28;20103;-68
2021/06/17 04:53:12;;;;;;;16.77;11.65;;;20.30;99.90;;;;;;5054381;28;20079;-70
2021/06/17 04:55:48;;;;;;;12.23;10.95;;;20.50;99.90;;;;;;5053673;28;20111;-71
2021/06/17 04:58:15;;;;;;;13.27;11.27;;;20.60;99.90;;;;;;5053342;28;20045;-70
2021/06/17 05:00:42;;;;;;;12.25;11.02;;;20.80;99.90;;;;;;5054010;28;20087;-70
2021/06/17 05:03:10;;;;;;;14.02;12.52;;;20.90;99.90;;;;;;5054046;28;20437;-70
2021/06/17 05:05:36;;;;;;;13.57;10.40;;;21.00;99.90;;;;;;5053426;28;20542;-71
2021/06/17 05:10:50;;;;;;;12.95;11.63;;;21.10;99.90;;;;;;5055903;28;20106;-70
2021/06/17 05:13:21;;;;;;;13.30;11.90;;;21.10;99.90;;;;;;5054894;28;20452;-70
2021/06/17 05:15:48;;;;;;;11.45;10.32;;;21.10;99.90;;;;;;5053811;28;20045;-71
2021/06/17 05:18:16;;;;;;;13.57;12.38;;;21.20;99.90;;;;;;5053170;28;20052;-70
2021/06/17 05:20:43;;;;;;;13.10;11.30;;;21.20;99.90;;;;;;5054639;28;20044;-69
2021/06/17 05:23:12;;;;;;;13.65;12.13;;;21.30;99.90;;;;;;5054094;28;20169;-72
2021/06/17 05:25:38;;;;;;;12.52;11.23;;;21.40;99.90;;;;;;5030185;28;20392;-70
2021/06/17 05:28:05;;;;;;;12.13;10.88;;;21.50;99.90;;;;;;4958652;28;78406;-69
2021/06/17 05:30:32;;;;;;;13.00;11.63;;;21.60;99.90;;;;;;4996078;28;20079;-70
2021/06/17 05:32:59;;;;;;;12.52;11.25;;;21.60;99.90;;;;;;5035650;28;20080;-70
2021/06/17 05:35:27;;;;;;;13.93;11.27;;;21.70;99.90;;;;;;5053459;28;20048;-70
2021/06/17 05:37:54;;;;;;;13.65;11.23;;;21.80;99.90;;;;;;5053166;28;20095;-68
2021/06/17 05:40:21;;;;;;;13.23;11.93;;;22.00;99.90;;;;;;5053626;28;20103;-70
2021/06/17 05:42:47;;;;;;;15.68;11.88;;;22.00;99.90;;;;;;5054579;28;20411;-71
2021/06/17 05:45:14;;;;;;;13.52;11.25;;;22.20;99.90;;;;;;5054119;28;20073;-71
2021/06/17 05:47:41;;;;;;;13.15;11.85;;;22.20;99.90;;;;;;5054915;28;20080;-69
2021/06/17 05:50:08;;;;;;;15.40;11.95;;;22.20;99.90;;;;;;5055417;28;20400;-70
2021/06/17 05:52:37;;;;;;;12.45;11.23;;;22.20;99.90;;;;;;5054463;28;20509;-68
2021/06/17 05:55:05;;;;;;;13.27;12.00;;;22.40;99.90;;;;;;5055238;28;20072;-71
2021/06/17 05:57:31;;;;;;;12.27;11.07;;;22.60;99.90;;;;;;5053683;28;20041;-68
2021/06/17 05:59:58;;;;;;;14.73;10.88;;;22.70;99.90;;;;;;5056435;28;20049;-73
2021/06/17 06:02:25;;;;;;;12.05;10.82;;;22.90;99.90;;;;;;5064377;28;20107;-70
2021/06/17 06:04:52;;;;;;;12.30;10.60;;;23.10;99.90;;;;;;5058011;28;20521;-70
2021/06/17 06:07:18;;;;;;;12.88;11.55;;;23.20;99.90;;;;;;5056903;28;20099;-71
2021/06/17 06:09:47;;;;;;;13.00;11.70;;;23.40;99.90;;;;;;5052096;28;20146;-69
2021/06/17 06:12:14;;;;;;;12.63;11.45;;;23.70;99.90;;;;;;5052572;28;20073;-69
2021/06/17 06:14:41;;;;;;;11.85;10.85;;;24.00;99.90;;;;;;5052742;28;20424;-70
2021/06/17 06:17:07;;;;;;;12.68;11.52;;;24.20;99.90;;;;;;5052415;28;20053;-69
2021/06/17 06:19:35;;;;;;;13.00;11.52;;;24.20;99.90;;;;;;5052121;28;20073;-71
2021/06/17 06:22:04;;;;;;;13.40;11.77;;;24.30;99.90;;;;;;5052645;28;20048;-69
2021/06/17 06:24:32;;;;;;;12.20;11.10;;;24.50;99.90;;;;;;5053119;28;20041;-70
2021/06/17 06:27:00;;;;;;;14.20;11.57;;;24.70;99.90;;;;;;5052351;28;20049;-70
2021/06/17 06:29:27;;;;;;;12.80;11.57;;;24.80;99.90;;;;;;5052580;28;20052;-68
2021/06/17 06:31:54;;;;;;;12.10;10.90;;;25.00;99.90;;;;;;5052690;28;20099;-72
2021/06/17 06:34:20;;;;;;;12.10;10.93;;;25.10;99.90;;;;;;5052404;28;20045;-68
2021/06/17 06:36:47;;;;;;;12.57;11.27;;;25.30;99.90;;;;;;5052692;28;20068;-73
2021/06/17 06:39:13;;;;;;;12.45;11.23;;;25.50;99.90;;;;;;5049694;28;20083;-75
2021/06/17 06:41:41;;;;;;;12.35;10.80;;;25.60;99.10;;;;;;5051970;28;20077;-75
2021/06/17 06:44:10;;;;;;;13.73;12.32;;;25.80;98.50;;;;;;5052605;28;20550;-75
2021/06/17 06:46:37;;;;;;;12.70;11.50;;;26.00;97.40;;;;;;5051479;28;20052;-74
2021/06/17 06:49:03;;;;;;;11.60;10.43;;;26.30;96.80;;;;;;5051391;28;21079;-74
2021/06/17 06:51:30;;;;;;;11.90;10.82;;;26.50;95.80;;;;;;5051692;28;20048;-74
2021/06/17 06:53:57;;;;;;;12.50;10.82;;;26.70;94.60;;;;;;5051791;28;20492;-75
2021/06/17 06:56:23;;;;;;;11.55;10.50;;;26.70;94.10;;;;;;5051886;28;20080;-75
2021/06/17 06:58:50;;;;;;;11.65;10.55;;;27.10;93.50;;;;;;5051895;28;20083;-75
2021/06/17 07:01:17;;;;;;;11.20;10.30;;;27.50;92.20;;;;;;5016054;28;20137;-69
2021/06/17 07:03:45;;;;;;;10.88;9.50;;;28.10;91.40;;;;;;5040758;28;20536;-70
2021/06/17 07:06:12;;;;;;;11.05;10.05;;;28.40;88.90;;;;;;5051932;28;20478;-73
2021/06/17 07:08:38;;;;;;;10.02;9.07;;;28.70;84.60;;;;;;5051881;28;20077;-69
2021/06/17 07:11:05;;;;;;;10.60;9.55;;;28.70;81.90;;;;;;5052256;28;20079;-69
2021/06/17 07:13:32;;;;;;;9.68;8.88;;;28.90;81.00;;;;;;5051966;28;20084;-70
2021/06/17 07:15:59;;;;;;;9.93;9.13;;;28.50;78.60;;;;;;5050798;28;20068;-72
2021/06/17 07:18:27;;;;;;;11.00;10.00;;;28.50;78.20;;;;;;5053217;28;20052;-71
2021/06/17 07:20:54;;;;;;;9.27;8.45;;;28.50;79.10;;;;;;5051799;28;20041;-69
2021/06/17 07:23:21;;;;;;;9.73;8.80;;;28.50;77.00;;;;;;5056294;28;20079;-70
2021/06/17 07:25:48;;;;;;;10.02;9.13;;;28.60;77.80;;;;;;5055676;28;20049;-70
2021/06/17 07:28:14;;;;;;;9.32;8.43;;;28.40;76.40;;;;;;5055859;28;20081;-69
2021/06/17 07:30:41;;;;;;;9.32;8.52;;;28.50;76.60;;;;;;5055538;28;20046;-70
2021/06/17 07:33:07;;;;;;;10.60;9.50;;;28.80;76.20;;;;;;5055589;28;20041;-68
2021/06/17 07:35:35;;;;;;;9.70;8.85;;;28.70;76.00;;;;;;5055727;28;20072;-70
2021/06/17 07:38:02;;;;;;;9.95;9.05;;;28.90;75.10;;;;;;5055206;28;20041;-71
2021/06/17 07:40:29;;;;;;;10.57;9.48;;;29.40;74.90;;;;;;5055702;28;20045;-69
2021/06/17 07:42:55;;;;;;;11.63;10.50;;;30.20;72.90;;;;;;5055254;28;20069;-70
2021/06/17 07:45:25;;;;;;;8.70;8.02;;;30.30;71.20;;;;;;5056734;28;20075;-69
2021/06/17 07:47:52;;;;;;;11.23;8.95;;;30.70;69.20;;;;;;5054880;28;20489;-70
2021/06/17 07:50:18;;;;;;;10.63;8.52;;;30.50;68.60;;;;;;5055058;28;20049;-72
2021/06/17 07:52:46;;;;;;;8.88;8.02;;;30.40;69.40;;;;;;5055572;28;20084;-69
2021/06/17 07:55:13;;;;;;;11.45;10.30;;;30.70;68.20;;;;;;5047329;28;20041;-70
2021/06/17 07:57:39;;;;;;;10.70;9.68;;;30.80;68.70;;;;;;5054897;28;20107;-70
2021/06/17 08:00:08;;;;;;;9.35;8.45;;;30.60;65.30;;;;;;5054497;28;20095;-70
2021/06/17 08:02:35;;;;;;;8.32;7.55;;;30.80;66.20;;;;;;5054995;28;20052;-70
2021/06/17 08:05:02;;;;;;;9.75;8.73;;;30.50;65.80;;;;;;5054694;28;20559;-71
2021/06/17 08:07:28;;;;;;;8.63;7.85;;;30.70;65.50;;;;;;5054895;28;20049;-69
2021/06/17 08:09:56;;;;;;;9.00;8.15;;;31.60;64.30;;;;;;5054755;28;20068;-69
2021/06/17 08:12:26;;;;;;;9.55;8.68;;;31.70;62.60;;;;;;5054457;28;20076;-70
2021/06/17 08:14:52;;;;;;;9.13;8.40;;;31.80;62.00;;;;;;5054837;28;20114;-69
2021/06/17 08:17:19;;;;;;;11.18;10.18;;;32.50;61.30;;;;;;5054116;28;20073;-71
2021/06/17 08:19:45;;;;;;;8.82;8.02;;;32.30;59.40;;;;;;5055374;28;20053;-72
2021/06/17 08:22:12;;;;;;;8.40;7.72;;;32.10;59.40;;;;;;5055889;28;20071;-72
2021/06/17 08:24:43;;;;;;;9.35;8.00;;;32.00;59.90;;;;;;5055207;28;20443;-70
2021/06/17 08:27:11;;;;;;;8.98;8.07;;;32.00;59.10;;;;;;5053869;28;20496;-70
2021/06/17 08:29:38;;;;;;;8.05;7.40;;;31.70;59.70;;;;;;5054808;28;20478;-71
2021/06/17 08:32:05;;;;;;;8.35;7.55;;;31.90;58.60;;;;;;5054745;28;20072;-72
2021/06/17 08:34:31;;;;;;;9.48;8.55;;;32.10;58.50;;;;;;5054020;28;20072;-73
2021/06/17 08:36:59;;;;;;;8.60;7.90;;;31.60;59.80;;;;;;5054247;28;20044;-70
2021/06/17 08:39:28;;;;;;;8.90;8.05;;;32.00;58.50;;;;;;5054144;28;20140;-72
2021/06/17 08:41:55;;;;;;;8.95;8.18;;;32.50;57.90;;;;;;5054863;28;20060;-72
2021/06/17 08:44:23;;;;;;;8.63;7.97;;;32.70;57.50;;;;;;5054165;28;20065;-70
2021/06/17 08:46:50;;;;;;;9.00;8.10;;;33.00;56.70;;;;;;5053823;28;20052;-71
2021/06/17 08:49:18;;;;;;;8.23;7.43;;;33.00;56.70;;;;;;5054098;28;20051;-70
2021/06/17 08:51:47;;;;;;;7.90;7.28;;;33.00;55.90;;;;;;5054094;28;20056;-74
2021/06/17 08:54:19;;;;;;;8.10;7.47;;;33.00;55.60;;;;;;5054798;28;20041;-72
2021/06/17 08:56:45;;;;;;;8.82;8.00;;;33.10;55.50;;;;;;5055204;28;20071;-71
2021/06/17 08:59:13;;;;;;;9.25;8.02;;;32.90;55.20;;;;;;5054544;28;20079;-73
2021/06/17 09:01:42;;;;;;;9.23;8.43;;;32.60;55.30;;;;;;5054206;28;20045;-70
2021/06/17 09:04:19;;;;;;;11.27;7.22;;;32.80;56.10;;;;;;5054684;28;20079;-71
2021/06/17 09:07:00;;;;;;;8.18;7.57;;;33.10;54.90;;;;;;5053527;28;20049;-70
2021/06/17 09:09:31;;;;;;;8.60;8.00;;;33.50;54.90;;;;;;5053917;28;20041;-72
2021/06/17 09:11:58;;;;;;;7.78;7.22;;;34.30;52.60;;;;;;5053742;28;20447;-70
2021/06/17 09:14:26;;;;;;;8.32;7.53;;;33.90;52.00;;;;;;5053711;28;20067;-69
2021/06/17 09:17:00;;;;;;;7.75;7.18;;;33.80;52.20;;;;;;5053398;28;20052;-70
2021/06/17 09:19:41;;;;;;;8.43;7.70;;;33.90;52.20;;;;;;5054251;28;20075;-71
2021/06/17 09:22:10;;;;;;;7.53;6.97;;;34.60;52.10;;;;;;5054026;28;20094;-70
2021/06/17 09:24:38;;;;;;;6.90;6.30;;;34.50;50.80;;;;;;5054409;28;20554;-71
2021/06/17 09:27:22;;;;;;;7.60;7.00;;;34.50;50.50;;;;;;5053687;28;20055;-70
2021/06/17 09:29:50;;;;;;;7.05;6.43;;;34.10;51.30;;;;;;5054114;28;20056;-72
2021/06/17 09:32:22;;;;;;;6.78;6.18;;;34.40;52.10;;;;;;5053724;28;20045;-75
2021/06/17 09:34:49;;;;;;;6.75;6.22;;;35.10;49.80;;;;;;5053761;28;20090;-69
2021/06/17 09:37:33;;;;;;;7.10;6.40;;;34.90;49.20;;;;;;5053557;28;20072;-71
2021/06/17 09:40:20;;;;;;;6.18;5.60;;;35.10;48.70;;;;;;5053618;28;20056;-70
2021/06/17 09:42:46;;;;;;;6.47;5.70;;;34.80;48.30;;;;;;5033810;28;20108;-72
2021/06/17 09:45:17;;;;;;;9.43;5.50;;;35.20;48.30;;;;;;5033373;28;20045;-72
2021/06/17 09:47:45;;;;;;;5.57;5.07;;;35.80;47.90;;;;;;5034162;28;20501;-72
2021/06/17 09:50:24;;;;;;;5.60;5.20;;;36.90;46.20;;;;;;5053173;28;20051;-71
2021/06/17 09:52:50;;;;;;;6.15;5.65;;;36.40;45.80;;;;;;5053418;28;20049;-68
2021/06/17 09:55:40;;;;;;;6.78;6.03;;;36.50;46.00;;;;;;5052872;28;20049;-68
2021/06/17 09:58:10;;;;;;;5.93;5.10;;;36.10;45.30;;;;;;5052741;28;20128;-68
2021/06/17 10:00:37;;;;;;;6.30;5.53;;;36.70;45.10;;;;;;5052925;28;20071;-69
2021/06/17 10:03:16;;;;;;;5.35;4.95;;;37.10;44.70;;;;;;5053324;28;20052;-69
2021/06/17 10:05:43;;;;;;;5.35;4.88;;;36.50;43.20;;;;;;5052768;28;20041;-68
2021/06/17 10:08:09;;;;;;;5.18;4.68;;;35.70;44.30;;;;;;5052643;28;20073;-68
2021/06/17 10:10:36;;;;;;;9.23;8.32;;;35.40;45.40;;;;;;5052423;28;20509;-69
2021/06/17 10:13:04;;;;;;;5.18;4.78;;;36.00;45.30;;;;;;5052488;28;20204;-68
2021/06/17 10:15:31;;;;;;;5.82;5.32;;;36.30;43.70;;;;;;5054281;28;20055;-69
2021/06/17 10:17:58;;;;;;;5.20;4.70;;;36.30;43.80;;;;;;5054035;28;20045;-69
2021/06/17 10:20:26;;;;;;;5.60;4.68;;;35.70;43.70;;;;;;5053285;28;20079;-68
2021/06/17 10:22:55;;;;;;;4.90;4.60;;;36.20;43.70;;;;;;5052431;28;20079;-69
2021/06/17 10:25:24;;;;;;;11.65;6.07;;;35.40;43.70;;;;;;5051926;28;20048;-69
2021/06/17 10:27:51;;;;;;;5.93;4.60;;;36.00;44.10;;;;;;5052139;28;20045;-69
2021/06/17 10:30:37;;;;;;;7.25;5.15;;;36.10;43.50;;;;;;5052481;28;20048;-70
2021/06/17 10:33:04;;;;;;;5.03;4.63;;;36.80;42.50;;;;;;5052547;28;20076;-68
2021/06/17 10:35:32;;;;;;;6.15;4.55;;;36.90;42.40;;;;;;5052043;28;20068;-69
2021/06/17 10:38:01;;;;;;;5.65;5.15;;;37.00;42.30;;;;;;5052139;28;20566;-68
2021/06/17 10:40:30;;;;;;;4.75;4.40;;;37.40;42.20;;;;;;5052170;28;20049;-67
2021/06/17 10:43:00;;;;;;;5.28;4.88;;;36.90;41.50;;;;;;5052608;28;20088;-70
2021/06/17 10:45:39;;;;;;;5.13;4.65;;;36.40;41.80;;;;;;5052191;28;20140;-68
2021/06/17 10:48:08;;;;;;;4.38;4.07;;;36.60;41.60;;;;;;5052043;28;20076;-69
2021/06/17 10:50:51;;;;;;;5.65;5.13;;;35.80;42.50;;;;;;5051824;28;20549;-69
2021/06/17 10:53:33;;;;;;;5.32;4.93;;;36.70;42.10;;;;;;5052289;28;20118;-69
2021/06/17 10:56:03;;;;;;;6.78;6.15;;;37.00;42.00;;;;;;5050876;28;20489;-69
2021/06/17 10:58:56;;;;;;;5.40;5.00;;;37.60;41.80;;;;;;5051867;28;20037;-69
2021/06/17 11:01:24;;;;;;;5.60;5.05;;;38.40;40.40;;;;;;5051737;28;20040;-69
2021/06/17 11:04:09;;;;;;;5.15;4.57;;;37.30;40.40;;;;;;5051492;28;20049;-71
2021/06/17 11:07:10;;;;;;;6.80;5.32;;;37.30;40.30;;;;;;5051627;28;20080;-72
2021/06/17 11:09:44;;;;;;;5.63;5.13;;;37.30;41.00;;;;;;5046488;28;20045;-73
2021/06/17 11:12:44;;;;;;;5.78;5.38;;;37.00;40.70;;;;;;5052336;28;20063;-70
2021/06/17 11:15:12;;;;;;;5.65;5.22;;;36.40;40.90;;;;;;5031828;28;20049;-73
2021/06/17 11:17:41;;;;;;;5.65;4.82;;;36.70;41.50;;;;;;5046887;28;20045;-71
2021/06/17 11:20:11;;;;;;;5.07;4.57;;;36.70;41.60;;;;;;5052841;28;20037;-70
2021/06/17 11:22:41;;;;;;;5.63;5.17;;;36.80;41.10;;;;;;5052273;28;20299;-70
2021/06/17 11:25:14;;;;;;;5.75;5.00;;;36.80;41.00;;;;;;5051422;28;20299;-71
2021/06/17 11:27:56;;;;;;;5.00;4.70;;;37.10;40.90;;;;;;5051730;28;20080;-71
2021/06/17 11:31:02;;;;;;;5.43;4.93;;;37.30;40.40;;;;;;5052009;28;20134;-71
2021/06/17 11:33:44;;;;;;;4.57;4.28;;;37.10;40.70;;;;;;5051712;28;20053;-69
2021/06/17 11:36:13;;;;;;;4.80;4.40;;;36.80;40.40;;;;;;5051583;28;20140;-70
2021/06/17 11:38:40;;;;;;;7.33;4.97;;;36.40;41.70;;;;;;5051412;28;20072;-71
2021/06/17 11:41:13;;;;;;;5.30;4.90;;;37.10;40.50;;;;;;5051804;28;20103;-71
2021/06/17 11:43:41;;;;;;;6.32;5.72;;;36.80;40.50;;;;;;5051876;28;20041;-70
2021/06/17 11:46:23;;;;;;;5.65;5.25;;;37.90;40.60;;;;;;5051200;28;20135;-70
2021/06/17 11:48:52;;;;;;;5.88;5.47;;;38.10;40.30;;;;;;5051706;28;20076;-68
2021/06/17 11:51:19;;;;;;;8.13;5.30;;;37.90;39.90;;;;;;5051362;28;20494;-70
2021/06/17 11:53:50;;;;;;;6.18;5.68;;;37.10;40.50;;;;;;5051489;28;20046;-69
2021/06/17 11:56:29;;;;;;;6.18;5.70;;;37.00;41.10;;;;;;5051047;28;20485;-69
2021/06/17 11:58:56;;;;;;;5.85;5.28;;;38.30;40.60;;;;;;5050945;28;20045;-69
2021/06/17 12:01:25;;;;;;;7.18;6.43;;;37.40;40.40;;;;;;5051402;28;20045;-70
2021/06/17 12:04:02;;;;;;;5.95;5.55;;;37.30;41.00;;;;;;5051188;28;20416;-71
2021/06/17 12:06:29;;;;;;;6.13;5.63;;;37.80;40.70;;;;;;5051222;28;20176;-70
2021/06/17 12:09:04;;;;;;;6.30;5.85;;;37.10;41.20;;;;;;5053177;28;20045;-72
2021/06/17 12:11:32;;;;;;;7.07;6.47;;;36.40;42.40;;;;;;5054914;28;20045;-72
2021/06/17 12:13:58;;;;;;;6.22;5.63;;;35.90;42.80;;;;;;5051373;28;20041;-71
2021/06/17 12:16:25;;;;;;;6.53;6.05;;;35.30;43.20;;;;;;5055166;28;20508;-71
2021/06/17 12:18:52;;;;;;;5.68;5.15;;;35.50;43.20;;;;;;5055227;28;20069;-71
2021/06/17 12:21:22;;;;;;;7.38;6.68;;;36.40;42.10;;;;;;5055363;28;20068;-71
2021/06/17 12:23:49;;;;;;;;;;;36.80;41.10;;;;;;5055850;28;20055;-71
2021/06/17 12:26:15;;;;;;;6.00;5.47;;;37.30;41.00;;;;;;5054595;28;19966;-71
2021/06/17 12:28:51;;;;;;;6.25;5.75;;;37.90;40.50;;;;;;5055052;28;20044;-72
2021/06/17 12:31:27;;;;;;;6.55;5.95;;;37.80;39.40;;;;;;5055213;28;20106;-72
2021/06/17 12:34:08;;;;;;;5.80;5.40;;;36.90;41.00;;;;;;5055542;28;20045;-71
2021/06/17 12:36:35;;;;;;;5.85;5.45;;;36.40;41.50;;;;;;5055408;28;20069;-72
2021/06/17 12:39:13;;;;;;;6.63;6.05;;;35.90;41.50;;;;;;5054631;28;20481;-71
2021/06/17 12:41:41;;;;;;;6.60;6.10;;;35.80;42.10;;;;;;5055248;28;20048;-71
2021/06/17 12:44:10;;;;;;;6.32;5.70;;;36.20;42.50;;;;;;5054912;28;20045;-72
2021/06/17 12:46:40;;;;;;;5.65;5.25;;;36.30;41.40;;;;;;5054574;28;20041;-71
2021/06/17 12:49:26;;;;;;;5.88;5.47;;;37.00;41.00;;;;;;5054951;28;20049;-71
2021/06/17 12:52:02;;;;;;;6.60;6.07;;;37.40;40.30;;;;;;5054916;28;20045;-70
2021/06/17 12:54:31;;;;;;;6.75;6.20;;;37.70;39.90;;;;;;5055165;28;20088;-71
2021/06/17 12:57:01;;;;;;;6.50;6.00;;;37.00;40.10;;;;;;5054065;28;20044;-72